Saturday, September 20, 2014
16:07 UTC
  |  Log In   |  Register Free
Airport Search:

Visalia Municipal Airport
(KVIS)

Visalia Municipal Airport Diagram
No Airport Diagram Available

FAA data valid effective September 18, 2014 - November 13, 2014 (unless otherwise noted).

 
 
 
 
 
 
 
 
 
 
 
 
 
 

Current Aviation Weather for Visalia Municipal Airport (KVIS)

The most recent METAR observation for KVIS was updated at: 1518
METAR Summary (Translated METAR)
KVIS
201455Z AUTO 32004KT 10SM CLR 19/14 A2989 RMK AO1 52014
KHJO
201453Z AUTO 33005KT 10SM CLR 20/14 A2989 RMK AO2 SLP120 T02000139 53016
(11.4 nm SW from KVIS)
KPTV
201455Z 16003KT 10SM CLR 19/12 A2990 RMK AO1 52014
(23.6 nm SE from KVIS)
TAF Summary (Translated TAF)
KVIS
201123Z 2012/2112 27004KT P6SM SKC FM202100 32008KT P6SM SKC FM210300 VRB03KT P6SM SKC
  Airport Weather Conditions for KVIS

 Current Weather at VIS
63° F
Fair
North winds at 0.0 mph
VIS NOAA Radar

Pressure: 29.87 in
Humidity: 73%
Wind: Calm
Dew Point: 53.6°F
Visibility: 10.00 mi


Airport Weather Forecast for KVIS

Translated METAR and TAF for KVIS
Translated METAR for KVIS (1601 UTC 20 September 2014)
found at http://aviationweather.gov/adds/metars/
 
METAR text: KVIS 201555Z AUTO 27003KT 10SM CLR 21/15 A2990 RMK AO1
Conditions at: KVIS (VISALIA MUNI , CA, US) observed 1555 UTC 20 September 2014
Temperature: 21.0°C (70°F)
Dewpoint: 15.0°C (59°F) [RH = 69%]
Pressure (altimeter): 29.90 inches Hg (1012.6 mb)
Winds: from the W (270 degrees) at 3 MPH (3 knots; 1.6 m/s)
Visibility: 10 or more miles (16+ km)
Ceiling: at least 12,000 feet AGL
Clouds: sky clear below 12,000 feet AGL
Weather: automated observation with no human augmentation;
there may or may not be significant weather present at this time
Translated TAF for KVIS
Forecast for: KVIS (VISALIA MUNI , CA, US)
TAF Text: KVIS 201123Z 2012/2112 27004KT P6SM SKC
Forecast period: 1200 to 2100 UTC 20 September 2014
Forecast type: FROM: standard forecast or significant change
Winds: from the W (270 degrees) at 5 MPH (4 knots; 2.1 m/s)
Visibility: 6 or more miles (10+ km)
Clouds: clear skies
Weather: no significant weather forecast for this period
TAF Text: FM202100 32008KT P6SM SKC
Forecast period: 2100 UTC 20 September 2014 to 0300 UTC 21 September 2014
Forecast type: FROM: standard forecast or significant change
Winds: from the NW (320 degrees) at 9 MPH (8 knots; 4.2 m/s)
Visibility: 6 or more miles (10+ km)
Clouds: clear skies
Weather: no significant weather forecast for this period
TAF Text: FM210300 VRB03KT P6SM SKC
Forecast period: 0300 to 1200 UTC 21 September 2014
Forecast type: FROM: standard forecast or significant change
Winds: variable direction winds at 3 MPH (3 knots; 1.6 m/s)
Visibility: 6 or more miles (10+ km)
Clouds: clear skies
Weather: no significant weather forecast for this period

Find All Airport Services Find A Hotel Find A Rental Car Find A Golf Course Find A Restaurant $100 Hamburger



FBO's on the Field
FBO Company Facility Photos Services Transportation Aviation Fuel Prices: Prices include tax
Catering Weather Repair Courtesy Rental Type 100LL JetA JetA+ MOGAS 8087
 
Add another FBO Facility Photos Catering Weather Repair Courtesy Rental Type 100LL JetA JetA+ MOGAS 8087
Services Transportation Aviation Fuel Prices: Prices include tax
There are no FBO's currently reporting fuel at VIS. List your FBO now


model-print
model-print
model-print
model-print